sensor_id;sensor_type;location;lat;lon;timestamp;pressure;altitude;pressure_sealevel;temperature;humidity
6433;BME280;3249;42.690;23.260;2023-11-18T00:01:44;93539.22;;;5.67;100.00
6433;BME280;3249;42.690;23.260;2023-11-18T00:04:14;93540.59;;;5.63;100.00
6433;BME280;3249;42.690;23.260;2023-11-18T00:06:44;93533.81;;;5.44;100.00
6433;BME280;3249;42.690;23.260;2023-11-18T00:09:16;93545.50;;;5.58;100.00
6433;BME280;3249;42.690;23.260;2023-11-18T00:11:46;93546.72;;;5.56;100.00
6433;BME280;3249;42.690;23.260;2023-11-18T00:14:16;93549.84;;;5.58;100.00
6433;BME280;3249;42.690;23.260;2023-11-18T00:16:46;93568.69;;;5.63;100.00
6433;BME280;3249;42.690;23.260;2023-11-18T00:19:16;93573.78;;;5.63;100.00
6433;BME280;3249;42.690;23.260;2023-11-18T00:21:45;93589.09;;;5.63;100.00
6433;BME280;3249;42.690;23.260;2023-11-18T00:24:18;93582.44;;;5.56;100.00
6433;BME280;3249;42.690;23.260;2023-11-18T00:26:47;93565.75;;;5.53;100.00
6433;BME280;3249;42.690;23.260;2023-11-18T00:29:16;93542.47;;;5.43;100.00
6433;BME280;3249;42.690;23.260;2023-11-18T00:31:46;93549.06;;;5.57;100.00
6433;BME280;3249;42.690;23.260;2023-11-18T00:34:16;93556.75;;;5.51;100.00
6433;BME280;3249;42.690;23.260;2023-11-18T00:36:46;93555.22;;;5.43;100.00
6433;BME280;3249;42.690;23.260;2023-11-18T00:39:20;93531.56;;;5.23;100.00
6433;BME280;3249;42.690;23.260;2023-11-18T00:41:49;93556.41;;;5.34;100.00
6433;BME280;3249;42.690;23.260;2023-11-18T00:44:19;93559.81;;;5.22;100.00
6433;BME280;3249;42.690;23.260;2023-11-18T00:46:49;93551.97;;;5.23;100.00
6433;BME280;3249;42.690;23.260;2023-11-18T00:49:18;93546.47;;;5.13;100.00
6433;BME280;3249;42.690;23.260;2023-11-18T00:51:47;93545.91;;;5.11;100.00
6433;BME280;3249;42.690;23.260;2023-11-18T00:54:20;93561.78;;;5.13;100.00
6433;BME280;3249;42.690;23.260;2023-11-18T00:56:50;93557.50;;;5.07;100.00
6433;BME280;3249;42.690;23.260;2023-11-18T00:59:20;93548.31;;;4.93;100.00
6433;BME280;3249;42.690;23.260;2023-11-18T01:01:50;93553.97;;;5.02;100.00
6433;BME280;3249;42.690;23.260;2023-11-18T01:04:19;93560.63;;;5.03;100.00
6433;BME280;3249;42.690;23.260;2023-11-18T01:06:48;93562.59;;;4.94;100.00
6433;BME280;3249;42.690;23.260;2023-11-18T01:09:20;93556.34;;;4.90;100.00
6433;BME280;3249;42.690;23.260;2023-11-18T01:11:51;93564.78;;;4.84;100.00
6433;BME280;3249;42.690;23.260;2023-11-18T01:14:20;93583.19;;;4.92;100.00
6433;BME280;3249;42.690;23.260;2023-11-18T01:16:53;93572.81;;;4.94;100.00
6433;BME280;3249;42.690;23.260;2023-11-18T01:19:22;93586.56;;;4.86;100.00
6433;BME280;3249;42.690;23.260;2023-11-18T01:21:52;93588.31;;;4.86;100.00
6433;BME280;3249;42.690;23.260;2023-11-18T01:24:25;93586.75;;;4.85;100.00
6433;BME280;3249;42.690;23.260;2023-11-18T01:26:54;93536.78;;;4.58;100.00
6433;BME280;3249;42.690;23.260;2023-11-18T01:29:25;93578.91;;;4.80;100.00
6433;BME280;3249;42.690;23.260;2023-11-18T01:31:54;93581.47;;;4.80;100.00
6433;BME280;3249;42.690;23.260;2023-11-18T01:34:24;93580.09;;;4.77;100.00
6433;BME280;3249;42.690;23.260;2023-11-18T01:36:54;93592.06;;;4.77;100.00
6433;BME280;3249;42.690;23.260;2023-11-18T01:39:26;93586.19;;;4.83;100.00
6433;BME280;3249;42.690;23.260;2023-11-18T01:41:56;93552.69;;;4.60;100.00
6433;BME280;3249;42.690;23.260;2023-11-18T01:44:25;93578.31;;;4.84;100.00
6433;BME280;3249;42.690;23.260;2023-11-18T01:46:58;93587.94;;;4.89;100.00
6433;BME280;3249;42.690;23.260;2023-11-18T01:49:32;93583.63;;;4.76;100.00
6433;BME280;3249;42.690;23.260;2023-11-18T01:52:06;93587.34;;;4.87;100.00
6433;BME280;3249;42.690;23.260;2023-11-18T01:54:39;93576.19;;;4.75;100.00
6433;BME280;3249;42.690;23.260;2023-11-18T01:57:11;93578.94;;;4.67;100.00
6433;BME280;3249;42.690;23.260;2023-11-18T01:59:42;93588.53;;;4.58;100.00
6433;BME280;3249;42.690;23.260;2023-11-18T02:02:12;93532.50;;;4.19;100.00
6433;BME280;3249;42.690;23.260;2023-11-18T02:04:41;93585.00;;;4.53;100.00
6433;BME280;3249;42.690;23.260;2023-11-18T02:07:11;93588.75;;;4.50;100.00
6433;BME280;3249;42.690;23.260;2023-11-18T02:09:43;93583.03;;;4.42;100.00
6433;BME280;3249;42.690;23.260;2023-11-18T02:12:19;93590.13;;;4.40;100.00
6433;BME280;3249;42.690;23.260;2023-11-18T02:14:50;93587.94;;;4.30;100.00
6433;BME280;3249;42.690;23.260;2023-11-18T02:17:22;93578.16;;;4.27;100.00
6433;BME280;3249;42.690;23.260;2023-11-18T02:19:53;93581.88;;;4.31;100.00
6433;BME280;3249;42.690;23.260;2023-11-18T02:22:22;93585.22;;;4.32;100.00
6433;BME280;3249;42.690;23.260;2023-11-18T02:24:54;93584.78;;;4.09;100.00
6433;BME280;3249;42.690;23.260;2023-11-18T02:27:26;93596.97;;;4.20;100.00
6433;BME280;3249;42.690;23.260;2023-11-18T02:29:55;93587.72;;;4.19;100.00
6433;BME280;3249;42.690;23.260;2023-11-18T02:32:29;93582.06;;;4.17;100.00
6433;BME280;3249;42.690;23.260;2023-11-18T02:35:05;93583.03;;;4.09;100.00
6433;BME280;3249;42.690;23.260;2023-11-18T02:37:40;93582.06;;;4.10;100.00
6433;BME280;3249;42.690;23.260;2023-11-18T02:40:16;93574.59;;;3.96;100.00
6433;BME280;3249;42.690;23.260;2023-11-18T02:42:51;93598.88;;;4.05;100.00
6433;BME280;3249;42.690;23.260;2023-11-18T02:45:22;93592.63;;;4.07;100.00
6433;BME280;3249;42.690;23.260;2023-11-18T02:47:53;93570.63;;;3.80;100.00
6433;BME280;3249;42.690;23.260;2023-11-18T02:50:23;93598.63;;;3.87;100.00
6433;BME280;3249;42.690;23.260;2023-11-18T02:52:53;93603.13;;;3.78;100.00
6433;BME280;3249;42.690;23.260;2023-11-18T02:55:20;93589.03;;;3.82;100.00
6433;BME280;3249;42.690;23.260;2023-11-18T02:57:53;93597.88;;;3.93;100.00
6433;BME280;3249;42.690;23.260;2023-11-18T03:00:23;93595.34;;;3.93;100.00
6433;BME280;3249;42.690;23.260;2023-11-18T03:02:52;93605.69;;;3.91;100.00
6433;BME280;3249;42.690;23.260;2023-11-18T03:05:21;93618.00;;;3.81;100.00
6433;BME280;3249;42.690;23.260;2023-11-18T03:07:52;93606.44;;;3.79;100.00
6433;BME280;3249;42.690;23.260;2023-11-18T03:10:24;93607.06;;;3.81;100.00
6433;BME280;3249;42.690;23.260;2023-11-18T03:12:58;93613.13;;;3.80;100.00
6433;BME280;3249;42.690;23.260;2023-11-18T03:15:28;93592.66;;;3.54;100.00
6433;BME280;3249;42.690;23.260;2023-11-18T03:17:58;93611.41;;;3.40;100.00
6433;BME280;3249;42.690;23.260;2023-11-18T03:20:27;93631.75;;;3.40;100.00
6433;BME280;3249;42.690;23.260;2023-11-18T03:22:59;93632.88;;;3.37;100.00
6433;BME280;3249;42.690;23.260;2023-11-18T03:25:28;93637.75;;;3.32;100.00
6433;BME280;3249;42.690;23.260;2023-11-18T03:28:00;93648.16;;;3.37;100.00
6433;BME280;3249;42.690;23.260;2023-11-18T03:30:32;93646.53;;;3.23;100.00
6433;BME280;3249;42.690;23.260;2023-11-18T03:33:03;93638.09;;;3.23;100.00
6433;BME280;3249;42.690;23.260;2023-11-18T03:35:36;93614.31;;;3.03;100.00
6433;BME280;3249;42.690;23.260;2023-11-18T03:38:06;93628.59;;;3.04;100.00
6433;BME280;3249;42.690;23.260;2023-11-18T03:40:35;93625.69;;;3.07;100.00
6433;BME280;3249;42.690;23.260;2023-11-18T03:43:07;93631.34;;;3.02;100.00
6433;BME280;3249;42.690;23.260;2023-11-18T03:45:38;93638.53;;;2.99;100.00
6433;BME280;3249;42.690;23.260;2023-11-18T03:48:09;93643.75;;;2.91;100.00
6433;BME280;3249;42.690;23.260;2023-11-18T03:50:40;93623.56;;;2.83;100.00
6433;BME280;3249;42.690;23.260;2023-11-18T03:53:11;93628.06;;;2.81;100.00
6433;BME280;3249;42.690;23.260;2023-11-18T03:55:40;93634.81;;;2.67;100.00
6433;BME280;3249;42.690;23.260;2023-11-18T03:58:12;93641.47;;;2.68;100.00
6433;BME280;3249;42.690;23.260;2023-11-18T04:00:41;93626.63;;;2.72;100.00
6433;BME280;3249;42.690;23.260;2023-11-18T04:03:11;93615.16;;;2.55;100.00
6433;BME280;3249;42.690;23.260;2023-11-18T04:05:40;93627.91;;;2.61;100.00
6433;BME280;3249;42.690;23.260;2023-11-18T04:08:09;93632.81;;;2.63;100.00
6433;BME280;3249;42.690;23.260;2023-11-18T04:10:39;93636.91;;;2.64;100.00
6433;BME280;3249;42.690;23.260;2023-11-18T04:13:08;93648.84;;;2.63;100.00
6433;BME280;3249;42.690;23.260;2023-11-18T04:15:41;93641.09;;;2.71;100.00
6433;BME280;3249;42.690;23.260;2023-11-18T04:18:11;93642.97;;;2.63;100.00
6433;BME280;3249;42.690;23.260;2023-11-18T04:20:40;93634.63;;;2.69;100.00
6433;BME280;3249;42.690;23.260;2023-11-18T04:23:09;93653.00;;;2.71;100.00
6433;BME280;3249;42.690;23.260;2023-11-18T04:25:40;93655.78;;;2.76;100.00
6433;BME280;3249;42.690;23.260;2023-11-18T04:28:10;93655.00;;;2.75;100.00
6433;BME280;3249;42.690;23.260;2023-11-18T04:30:42;93649.88;;;2.69;100.00
6433;BME280;3249;42.690;23.260;2023-11-18T04:33:11;93651.38;;;2.63;100.00
6433;BME280;3249;42.690;23.260;2023-11-18T04:35:41;93616.22;;;2.39;100.00
6433;BME280;3249;42.690;23.260;2023-11-18T04:38:12;93645.81;;;2.53;100.00
6433;BME280;3249;42.690;23.260;2023-11-18T04:40:41;93655.09;;;2.61;100.00
6433;BME280;3249;42.690;23.260;2023-11-18T04:43:10;93663.66;;;2.60;100.00
6433;BME280;3249;42.690;23.260;2023-11-18T04:45:42;93670.88;;;2.56;100.00
6433;BME280;3249;42.690;23.260;2023-11-18T04:48:12;93666.75;;;2.55;100.00
6433;BME280;3249;42.690;23.260;2023-11-18T04:50:42;93672.25;;;2.59;100.00
6433;BME280;3249;42.690;23.260;2023-11-18T04:53:11;93670.69;;;2.58;100.00
6433;BME280;3249;42.690;23.260;2023-11-18T04:55:40;93641.06;;;2.44;100.00
6433;BME280;3249;42.690;23.260;2023-11-18T04:58:09;93674.97;;;2.57;100.00
6433;BME280;3249;42.690;23.260;2023-11-18T05:00:41;93679.88;;;2.59;100.00
6433;BME280;3249;42.690;23.260;2023-11-18T05:03:10;93669.84;;;2.51;100.00
6433;BME280;3249;42.690;23.260;2023-11-18T05:05:40;93675.75;;;2.58;100.00
6433;BME280;3249;42.690;23.260;2023-11-18T05:08:18;93675.59;;;2.59;100.00
6433;BME280;3249;42.690;23.260;2023-11-18T05:10:48;93663.91;;;2.65;100.00
6433;BME280;3249;42.690;23.260;2023-11-18T05:13:17;93658.22;;;2.63;100.00
6433;BME280;3249;42.690;23.260;2023-11-18T05:15:50;93645.66;;;2.55;100.00
6433;BME280;3249;42.690;23.260;2023-11-18T05:18:20;93653.81;;;2.50;100.00
6433;BME280;3249;42.690;23.260;2023-11-18T05:20:49;93643.00;;;2.42;100.00
6433;BME280;3249;42.690;23.260;2023-11-18T05:23:20;93645.22;;;2.51;100.00
6433;BME280;3249;42.690;23.260;2023-11-18T05:25:49;93646.84;;;2.59;100.00
6433;BME280;3249;42.690;23.260;2023-11-18T05:28:19;93649.03;;;2.62;100.00
6433;BME280;3249;42.690;23.260;2023-11-18T05:30:51;93659.00;;;2.63;100.00
6433;BME280;3249;42.690;23.260;2023-11-18T05:33:24;93652.69;;;2.53;100.00
6433;BME280;3249;42.690;23.260;2023-11-18T05:35:54;93660.78;;;2.42;100.00
6433;BME280;3249;42.690;23.260;2023-11-18T05:38:23;93650.25;;;2.45;100.00
6433;BME280;3249;42.690;23.260;2023-11-18T05:40:54;93643.22;;;2.47;100.00
6433;BME280;3249;42.690;23.260;2023-11-18T05:43:27;93643.84;;;2.49;100.00
6433;BME280;3249;42.690;23.260;2023-11-18T05:46:05;93636.59;;;2.46;100.00
6433;BME280;3249;42.690;23.260;2023-11-18T05:48:47;93621.03;;;2.34;100.00
6433;BME280;3249;42.690;23.260;2023-11-18T05:51:19;93640.94;;;2.52;100.00
6433;BME280;3249;42.690;23.260;2023-11-18T05:53:50;93641.53;;;2.54;100.00
6433;BME280;3249;42.690;23.260;2023-11-18T05:56:20;93655.25;;;2.59;100.00
6433;BME280;3249;42.690;23.260;2023-11-18T05:58:50;93639.97;;;2.53;100.00
6433;BME280;3249;42.690;23.260;2023-11-18T06:01:24;93656.16;;;2.52;100.00
6433;BME280;3249;42.690;23.260;2023-11-18T06:03:54;93665.97;;;2.55;100.00
6433;BME280;3249;42.690;23.260;2023-11-18T06:06:23;93657.25;;;2.64;100.00
6433;BME280;3249;42.690;23.260;2023-11-18T06:08:52;93652.53;;;2.40;100.00
6433;BME280;3249;42.690;23.260;2023-11-18T06:11:25;93654.59;;;2.51;100.00
6433;BME280;3249;42.690;23.260;2023-11-18T06:13:54;93660.78;;;2.42;100.00
6433;BME280;3249;42.690;23.260;2023-11-18T06:16:27;93660.16;;;2.40;100.00
6433;BME280;3249;42.690;23.260;2023-11-18T06:18:57;93672.03;;;2.33;100.00
6433;BME280;3249;42.690;23.260;2023-11-18T06:21:31;93659.34;;;2.33;100.00
6433;BME280;3249;42.690;23.260;2023-11-18T06:24:02;93654.38;;;2.25;100.00
6433;BME280;3249;42.690;23.260;2023-11-18T06:26:32;93670.44;;;2.32;100.00
6433;BME280;3249;42.690;23.260;2023-11-18T06:29:03;93671.78;;;2.49;100.00
6433;BME280;3249;42.690;23.260;2023-11-18T06:31:35;93676.47;;;2.52;100.00
6433;BME280;3249;42.690;23.260;2023-11-18T06:34:04;93676.13;;;2.55;100.00
6433;BME280;3249;42.690;23.260;2023-11-18T06:36:33;93665.16;;;2.54;100.00
6433;BME280;3249;42.690;23.260;2023-11-18T06:39:03;93678.53;;;2.63;100.00
6433;BME280;3249;42.690;23.260;2023-11-18T06:41:33;93679.97;;;2.72;100.00
6433;BME280;3249;42.690;23.260;2023-11-18T06:44:05;93663.53;;;2.68;100.00
6433;BME280;3249;42.690;23.260;2023-11-18T06:46:46;93671.53;;;2.65;100.00
6433;BME280;3249;42.690;23.260;2023-11-18T06:49:17;93655.66;;;2.63;100.00
6433;BME280;3249;42.690;23.260;2023-11-18T06:51:46;93682.50;;;2.72;100.00
6433;BME280;3249;42.690;23.260;2023-11-18T06:54:15;93682.16;;;2.75;100.00
6433;BME280;3249;42.690;23.260;2023-11-18T06:56:44;93676.47;;;2.73;100.00
6433;BME280;3249;42.690;23.260;2023-11-18T06:59:14;93688.50;;;2.85;100.00
6433;BME280;3249;42.690;23.260;2023-11-18T07:01:47;93688.88;;;2.82;100.00
6433;BME280;3249;42.690;23.260;2023-11-18T07:04:16;93687.09;;;2.83;100.00
6433;BME280;3249;42.690;23.260;2023-11-18T07:06:45;93671.84;;;2.83;100.00
6433;BME280;3249;42.690;23.260;2023-11-18T07:09:14;93698.28;;;2.88;100.00
6433;BME280;3249;42.690;23.260;2023-11-18T07:11:47;93700.28;;;2.72;100.00
6433;BME280;3249;42.690;23.260;2023-11-18T07:14:17;93692.25;;;2.68;100.00
6433;BME280;3249;42.690;23.260;2023-11-18T07:16:48;93694.22;;;2.66;100.00
6433;BME280;3249;42.690;23.260;2023-11-18T07:19:18;93703.81;;;2.71;100.00
6433;BME280;3249;42.690;23.260;2023-11-18T07:21:49;93702.13;;;2.78;100.00
6433;BME280;3249;42.690;23.260;2023-11-18T07:24:19;93706.59;;;2.76;100.00
6433;BME280;3249;42.690;23.260;2023-11-18T07:26:49;93711.91;;;2.81;100.00
6433;BME280;3249;42.690;23.260;2023-11-18T07:29:18;93706.34;;;2.71;100.00
6433;BME280;3249;42.690;23.260;2023-11-18T07:31:51;93718.34;;;2.77;100.00
6433;BME280;3249;42.690;23.260;2023-11-18T07:34:20;93721.66;;;2.77;100.00
6433;BME280;3249;42.690;23.260;2023-11-18T07:36:52;93724.00;;;2.79;100.00
6433;BME280;3249;42.690;23.260;2023-11-18T07:39:21;93729.88;;;2.79;100.00
6433;BME280;3249;42.690;23.260;2023-11-18T07:42:07;93720.56;;;2.65;100.00
6433;BME280;3249;42.690;23.260;2023-11-18T07:44:36;93726.69;;;2.71;100.00
6433;BME280;3249;42.690;23.260;2023-11-18T07:47:08;93710.53;;;2.57;100.00
6433;BME280;3249;42.690;23.260;2023-11-18T07:49:38;93701.16;;;2.58;100.00
6433;BME280;3249;42.690;23.260;2023-11-18T07:52:07;93720.16;;;2.62;100.00
6433;BME280;3249;42.690;23.260;2023-11-18T07:54:36;93701.63;;;2.47;100.00
6433;BME280;3249;42.690;23.260;2023-11-18T07:57:05;93734.47;;;2.69;100.00
6433;BME280;3249;42.690;23.260;2023-11-18T07:59:36;93726.25;;;2.67;100.00
6433;BME280;3249;42.690;23.260;2023-11-18T08:02:08;93724.94;;;2.71;100.00
6433;BME280;3249;42.690;23.260;2023-11-18T08:04:37;93711.31;;;2.58;100.00
6433;BME280;3249;42.690;23.260;2023-11-18T08:07:07;93707.94;;;2.51;100.00
6433;BME280;3249;42.690;23.260;2023-11-18T08:09:36;93730.56;;;2.46;100.00
6433;BME280;3249;42.690;23.260;2023-11-18T08:12:06;93723.56;;;2.54;100.00
6433;BME280;3249;42.690;23.260;2023-11-18T08:14:35;93715.72;;;2.49;100.00
6433;BME280;3249;42.690;23.260;2023-11-18T08:17:04;93724.31;;;2.48;100.00
6433;BME280;3249;42.690;23.260;2023-11-18T08:19:36;93725.72;;;2.51;100.00
6433;BME280;3249;42.690;23.260;2023-11-18T08:22:05;93736.84;;;2.50;100.00
6433;BME280;3249;42.690;23.260;2023-11-18T08:24:35;93738.88;;;2.40;100.00
6433;BME280;3249;42.690;23.260;2023-11-18T08:27:04;93754.16;;;2.61;100.00
6433;BME280;3249;42.690;23.260;2023-11-18T08:29:33;93745.56;;;2.62;100.00
6433;BME280;3249;42.690;23.260;2023-11-18T08:32:05;93755.94;;;2.67;100.00
6433;BME280;3249;42.690;23.260;2023-11-18T08:34:38;93744.47;;;2.71;100.00
6433;BME280;3249;42.690;23.260;2023-11-18T08:37:07;93734.41;;;2.63;100.00
6433;BME280;3249;42.690;23.260;2023-11-18T08:39:36;93753.06;;;2.70;100.00
6433;BME280;3249;42.690;23.260;2023-11-18T08:42:06;93749.59;;;2.56;100.00
6433;BME280;3249;42.690;23.260;2023-11-18T08:44:35;93759.28;;;2.67;100.00
6433;BME280;3249;42.690;23.260;2023-11-18T08:47:06;93762.34;;;2.42;100.00
6433;BME280;3249;42.690;23.260;2023-11-18T08:49:42;93772.63;;;2.55;100.00
6433;BME280;3249;42.690;23.260;2023-11-18T08:52:12;93746.97;;;2.29;100.00
6433;BME280;3249;42.690;23.260;2023-11-18T08:54:44;93773.72;;;2.46;100.00
6433;BME280;3249;42.690;23.260;2023-11-18T08:57:25;93779.69;;;2.38;100.00
6433;BME280;3249;42.690;23.260;2023-11-18T09:00:15;93763.44;;;2.33;100.00
6433;BME280;3249;42.690;23.260;2023-11-18T09:03:06;93791.59;;;2.38;100.00
6433;BME280;3249;42.690;23.260;2023-11-18T09:05:46;93770.41;;;2.31;100.00
6433;BME280;3249;42.690;23.260;2023-11-18T09:08:26;93780.72;;;2.44;100.00
6433;BME280;3249;42.690;23.260;2023-11-18T09:10:59;93775.56;;;2.37;100.00
6433;BME280;3249;42.690;23.260;2023-11-18T09:13:28;93767.28;;;2.29;100.00
6433;BME280;3249;42.690;23.260;2023-11-18T09:15:58;93759.19;;;2.40;100.00
6433;BME280;3249;42.690;23.260;2023-11-18T09:18:28;93763.44;;;2.54;100.00
6433;BME280;3249;42.690;23.260;2023-11-18T09:21:02;93760.91;;;2.54;100.00
6433;BME280;3249;42.690;23.260;2023-11-18T09:23:35;93780.94;;;2.63;100.00
6433;BME280;3249;42.690;23.260;2023-11-18T09:26:06;93768.28;;;2.49;100.00
6433;BME280;3249;42.690;23.260;2023-11-18T09:28:37;93748.78;;;2.35;100.00
6433;BME280;3249;42.690;23.260;2023-11-18T09:31:07;93762.41;;;2.48;100.00
6433;BME280;3249;42.690;23.260;2023-11-18T09:33:39;93760.91;;;2.54;100.00
6433;BME280;3249;42.690;23.260;2023-11-18T09:36:15;93744.47;;;2.50;100.00
6433;BME280;3249;42.690;23.260;2023-11-18T09:38:45;93742.41;;;2.60;100.00
6433;BME280;3249;42.690;23.260;2023-11-18T09:41:16;93745.78;;;2.67;100.00
6433;BME280;3249;42.690;23.260;2023-11-18T09:43:46;93746.41;;;2.69;100.00
6433;BME280;3249;42.690;23.260;2023-11-18T09:46:22;93749.91;;;2.68;100.00
6433;BME280;3249;42.690;23.260;2023-11-18T09:49:04;93733.31;;;2.72;100.00
6433;BME280;3249;42.690;23.260;2023-11-18T09:51:44;93733.31;;;2.72;100.00
6433;BME280;3249;42.690;23.260;2023-11-18T09:54:30;93734.75;;;2.74;100.00
6433;BME280;3249;42.690;23.260;2023-11-18T09:57:06;93746.16;;;2.85;100.00
6433;BME280;3249;42.690;23.260;2023-11-18T09:59:46;93744.88;;;2.95;100.00
6433;BME280;3249;42.690;23.260;2023-11-18T10:02:22;93731.50;;;2.87;100.00
6433;BME280;3249;42.690;23.260;2023-11-18T10:04:53;93704.44;;;2.73;100.00
6433;BME280;3249;42.690;23.260;2023-11-18T10:07:29;93720.88;;;2.77;100.00
6433;BME280;3249;42.690;23.260;2023-11-18T10:10:02;93722.84;;;2.81;100.00
6433;BME280;3249;42.690;23.260;2023-11-18T10:12:41;93720.97;;;2.90;100.00
6433;BME280;3249;42.690;23.260;2023-11-18T10:15:14;93714.56;;;2.94;100.00
6433;BME280;3249;42.690;23.260;2023-11-18T10:17:45;93713.00;;;2.93;100.00
6433;BME280;3249;42.690;23.260;2023-11-18T10:20:43;93701.44;;;2.90;100.00
6433;BME280;3249;42.690;23.260;2023-11-18T10:23:17;93722.84;;;3.02;100.00
6433;BME280;3249;42.690;23.260;2023-11-18T10:25:49;93713.72;;;2.87;100.00
6433;BME280;3249;42.690;23.260;2023-11-18T10:28:22;93713.25;;;2.77;100.00
6433;BME280;3249;42.690;23.260;2023-11-18T10:30:53;93735.44;;;2.89;100.00
6433;BME280;3249;42.690;23.260;2023-11-18T10:33:27;93734.91;;;2.94;100.00
6433;BME280;3249;42.690;23.260;2023-11-18T10:35:58;93717.53;;;2.76;100.00
6433;BME280;3249;42.690;23.260;2023-11-18T10:38:42;93704.53;;;2.86;100.00
6433;BME280;3249;42.690;23.260;2023-11-18T10:41:13;93723.75;;;2.95;100.00
6433;BME280;3249;42.690;23.260;2023-11-18T10:43:42;93746.25;;;2.98;100.00
6433;BME280;3249;42.690;23.260;2023-11-18T10:46:14;93739.75;;;2.89;100.00
6433;BME280;3249;42.690;23.260;2023-11-18T10:48:48;93743.91;;;2.96;100.00
6433;BME280;3249;42.690;23.260;2023-11-18T10:51:18;93741.19;;;2.98;100.00
6433;BME280;3249;42.690;23.260;2023-11-18T10:53:55;93737.06;;;2.97;100.00
6433;BME280;3249;42.690;23.260;2023-11-18T10:56:27;93731.59;;;3.00;100.00
6433;BME280;3249;42.690;23.260;2023-11-18T10:58:59;93717.38;;;2.78;100.00
6433;BME280;3249;42.690;23.260;2023-11-18T11:01:29;93730.13;;;2.84;100.00
6433;BME280;3249;42.690;23.260;2023-11-18T11:03:59;93725.22;;;2.83;100.00
6433;BME280;3249;42.690;23.260;2023-11-18T11:06:32;93733.28;;;2.86;100.00
6433;BME280;3249;42.690;23.260;2023-11-18T11:09:05;93726.31;;;2.74;100.00
6433;BME280;3249;42.690;23.260;2023-11-18T11:11:47;93705.72;;;2.62;100.00
6433;BME280;3249;42.690;23.260;2023-11-18T11:14:20;93735.31;;;2.76;100.00
6433;BME280;3249;42.690;23.260;2023-11-18T11:16:53;93735.16;;;2.78;100.00
6433;BME280;3249;42.690;23.260;2023-11-18T11:19:26;93735.38;;;2.83;100.00
6433;BME280;3249;42.690;23.260;2023-11-18T11:22:04;93728.00;;;2.88;100.00
6433;BME280;3249;42.690;23.260;2023-11-18T11:24:54;93737.66;;;2.99;100.00
6433;BME280;3249;42.690;23.260;2023-11-18T11:27:33;93696.00;;;2.72;100.00
6433;BME280;3249;42.690;23.260;2023-11-18T11:30:13;93728.97;;;2.87;100.00
6433;BME280;3249;42.690;23.260;2023-11-18T11:32:50;93737.06;;;2.97;100.00
6433;BME280;3249;42.690;23.260;2023-11-18T11:35:23;93726.31;;;2.74;100.00
6433;BME280;3249;42.690;23.260;2023-11-18T11:37:59;93736.88;;;2.77;100.00
6433;BME280;3249;42.690;23.260;2023-11-18T11:40:42;93727.81;;;2.68;100.00
6433;BME280;3249;42.690;23.260;2023-11-18T11:43:12;93712.53;;;2.62;100.00
6433;BME280;3249;42.690;23.260;2023-11-18T11:45:49;93694.13;;;2.60;100.00
6433;BME280;3249;42.690;23.260;2023-11-18T11:48:20;93716.63;;;2.84;100.00
6433;BME280;3249;42.690;23.260;2023-11-18T11:51:14;93720.06;;;2.97;100.00
6433;BME280;3249;42.690;23.260;2023-11-18T11:53:49;93721.38;;;2.93;100.00
6433;BME280;3249;42.690;23.260;2023-11-18T11:56:43;93721.25;;;3.01;100.00
6433;BME280;3249;42.690;23.260;2023-11-18T11:59:15;93700.88;;;2.95;100.00
6433;BME280;3249;42.690;23.260;2023-11-18T12:01:48;93714.91;;;2.91;100.00
6433;BME280;3249;42.690;23.260;2023-11-18T12:04:18;93705.63;;;2.77;100.00
6433;BME280;3249;42.690;23.260;2023-11-18T12:06:55;93703.09;;;2.77;100.00
6433;BME280;3249;42.690;23.260;2023-11-18T12:09:30;93724.84;;;2.86;100.00
6433;BME280;3249;42.690;23.260;2023-11-18T12:12:16;93721.22;;;2.95;100.00
6433;BME280;3249;42.690;23.260;2023-11-18T12:14:49;93729.63;;;2.95;100.00
6433;BME280;3249;42.690;23.260;2023-11-18T12:17:22;93730.66;;;3.01;100.00
6433;BME280;3249;42.690;23.260;2023-11-18T12:19:57;93729.59;;;2.89;100.00
6433;BME280;3249;42.690;23.260;2023-11-18T12:23:02;93735.88;;;2.93;100.00
6433;BME280;3249;42.690;23.260;2023-11-18T12:25:40;93717.00;;;2.81;100.00
6433;BME280;3249;42.690;23.260;2023-11-18T12:28:15;93740.56;;;2.96;100.00
6433;BME280;3249;42.690;23.260;2023-11-18T12:30:48;93733.19;;;3.01;100.00
6433;BME280;3249;42.690;23.260;2023-11-18T12:34:00;93727.13;;;3.02;100.00
6433;BME280;3249;42.690;23.260;2023-11-18T12:36:53;93725.22;;;2.83;100.00
6433;BME280;3249;42.690;23.260;2023-11-18T12:43:00;93743.00;;;2.83;100.00
6433;BME280;3249;42.690;23.260;2023-11-18T12:48:45;93734.75;;;3.02;100.00
6433;BME280;3249;42.690;23.260;2023-11-18T12:51:18;93732.09;;;3.10;100.00
6433;BME280;3249;42.690;23.260;2023-11-18T12:53:51;93726.81;;;3.11;100.00
6433;BME280;3249;42.690;23.260;2023-11-18T12:56:21;93713.22;;;2.98;100.00
6433;BME280;3249;42.690;23.260;2023-11-18T12:58:51;93715.59;;;2.99;100.00
6433;BME280;3249;42.690;23.260;2023-11-18T13:01:22;93737.25;;;3.23;100.00
6433;BME280;3249;42.690;23.260;2023-11-18T13:03:56;93738.59;;;3.19;100.00
6433;BME280;3249;42.690;23.260;2023-11-18T13:06:27;93725.44;;;3.09;100.00
6433;BME280;3249;42.690;23.260;2023-11-18T13:08:57;93729.06;;;3.00;100.00
6433;BME280;3249;42.690;23.260;2023-11-18T13:11:31;93743.81;;;3.11;100.00
6433;BME280;3249;42.690;23.260;2023-11-18T13:14:01;93762.81;;;3.15;100.00
6433;BME280;3249;42.690;23.260;2023-11-18T13:16:34;93773.59;;;3.17;100.00
6433;BME280;3249;42.690;23.260;2023-11-18T13:19:06;93760.31;;;3.21;100.00
6433;BME280;3249;42.690;23.260;2023-11-18T13:21:36;93763.78;;;3.14;100.00
6433;BME280;3249;42.690;23.260;2023-11-18T13:24:09;93778.75;;;3.23;100.00
6433;BME280;3249;42.690;23.260;2023-11-18T13:26:38;93766.94;;;3.16;100.00
6433;BME280;3249;42.690;23.260;2023-11-18T13:29:09;93777.03;;;3.09;100.00
6433;BME280;3249;42.690;23.260;2023-11-18T13:31:38;93777.34;;;3.00;100.00
6433;BME280;3249;42.690;23.260;2023-11-18T13:34:10;93769.94;;;2.98;100.00
6433;BME280;3249;42.690;23.260;2023-11-18T13:36:40;93780.69;;;3.00;100.00
6433;BME280;3249;42.690;23.260;2023-11-18T13:39:15;93790.69;;;3.02;100.00
6433;BME280;3249;42.690;23.260;2023-11-18T13:41:49;93790.97;;;2.92;100.00
6433;BME280;3249;42.690;23.260;2023-11-18T13:44:34;93809.56;;;2.93;100.00